createdAt,value
2018-12-03T00:00:50.294Z,972.456
2018-12-03T00:02:50.382Z,972.406
2018-12-03T00:04:49.786Z,972.406
2018-12-03T00:06:50.246Z,972.343
2018-12-03T00:08:50.344Z,972.319
2018-12-03T00:10:50.433Z,972.280
2018-12-03T00:12:50.444Z,972.269
2018-12-03T00:14:49.640Z,972.286
2018-12-03T00:16:50.140Z,972.293
2018-12-03T00:18:50.211Z,972.288
2018-12-03T00:20:50.226Z,972.262
2018-12-03T00:22:50.296Z,972.221
2018-12-03T00:24:50.380Z,972.192
2018-12-03T00:26:49.819Z,972.186
2018-12-03T00:28:50.012Z,972.169
2018-12-03T00:30:50.063Z,972.173
2018-12-03T00:32:50.145Z,972.170
2018-12-03T00:34:49.669Z,972.150
2018-12-03T00:36:50.173Z,972.119
2018-12-03T00:38:50.179Z,972.079
2018-12-03T00:40:50.202Z,972.034
2018-12-03T00:42:50.247Z,971.999
2018-12-03T00:44:50.564Z,971.999
2018-12-03T00:46:49.890Z,972.006
2018-12-03T00:48:49.991Z,972.024
2018-12-03T00:50:50.082Z,972.024
2018-12-03T00:52:50.072Z,972.041
2018-12-03T00:54:50.203Z,972.045
2018-12-03T00:56:50.378Z,971.996
2018-12-03T00:58:50.440Z,971.977
2018-12-03T01:00:50.448Z,971.995
2018-12-03T01:02:50.524Z,972.004
2018-12-03T01:04:49.983Z,972.011
2018-12-03T01:06:50.182Z,971.999
2018-12-03T01:08:50.304Z,971.988
2018-12-03T01:10:50.465Z,972.007
2018-12-03T01:12:49.730Z,971.998
2018-12-03T01:14:50.051Z,971.998
2018-12-03T01:16:50.419Z,971.983
2018-12-03T01:18:50.519Z,971.974
2018-12-03T01:20:49.630Z,971.952
2018-12-03T01:22:49.852Z,971.951
2018-12-03T01:24:49.866Z,971.943
2018-12-03T01:26:50.152Z,971.924
2018-12-03T01:28:50.254Z,971.918
2018-12-03T01:30:50.320Z,971.927
2018-12-03T01:32:50.506Z,971.908
2018-12-03T01:34:50.231Z,971.906
2018-12-03T01:36:50.441Z,971.867
2018-12-03T01:38:50.419Z,971.846
2018-12-03T01:40:49.650Z,971.856
2018-12-03T01:42:49.837Z,971.856
2018-12-03T01:44:49.894Z,971.873
2018-12-03T01:46:50.219Z,971.897
2018-12-03T01:48:50.278Z,971.936
2018-12-03T01:50:50.424Z,971.948
2018-12-03T01:52:50.496Z,971.965
2018-12-03T01:54:49.631Z,971.949
2018-12-03T01:56:50.055Z,971.940
2018-12-03T01:58:50.261Z,971.949
2018-12-03T02:00:50.347Z,971.914
2018-12-03T02:02:50.399Z,971.907
2018-12-03T02:04:50.166Z,971.894
2018-12-03T02:06:49.620Z,971.824
2018-12-03T02:08:49.834Z,971.758
2018-12-03T02:10:49.913Z,971.661
2018-12-03T02:12:50.297Z,971.660
2018-12-03T02:14:50.326Z,971.684
2018-12-03T02:16:49.756Z,971.686
2018-12-03T02:18:49.969Z,971.664
2018-12-03T02:20:50.087Z,971.658
2018-12-03T02:22:50.318Z,971.629
2018-12-03T02:24:50.511Z,971.613
2018-12-03T02:26:50.120Z,971.591
2018-12-03T02:28:50.296Z,971.591
2018-12-03T02:30:50.431Z,971.541
2018-12-03T02:32:49.842Z,971.570
2018-12-03T02:34:50.308Z,971.649
2018-12-03T02:36:50.386Z,971.695
2018-12-03T02:38:50.495Z,971.663
2018-12-03T02:40:49.631Z,971.624
2018-12-03T02:42:49.719Z,971.580
2018-12-03T02:44:49.736Z,971.584
2018-12-03T02:46:50.268Z,971.663
2018-12-03T02:48:50.359Z,971.711
2018-12-03T02:50:50.453Z,971.729
2018-12-03T02:52:50.482Z,971.781
2018-12-03T02:54:49.725Z,971.798
2018-12-03T02:56:50.228Z,971.811
2018-12-03T02:58:50.234Z,972.139
2018-12-03T03:00:50.439Z,972.178
2018-12-03T03:02:50.518Z,972.115
2018-12-03T03:04:50.147Z,971.699
2018-12-03T03:06:50.582Z,971.374
2018-12-03T03:08:49.787Z,971.306
2018-12-03T03:10:49.922Z,971.270
2018-12-03T03:12:50.152Z,971.273
2018-12-03T03:14:50.235Z,971.318
2018-12-03T03:16:50.477Z,971.382
2018-12-03T03:18:49.719Z,971.403
2018-12-03T03:20:49.896Z,971.425
2018-12-03T03:22:49.934Z,971.564
2018-12-03T03:24:50.120Z,971.659
2018-12-03T03:26:50.364Z,971.865
2018-12-03T03:28:50.527Z,971.904
2018-12-03T03:30:50.557Z,971.897
2018-12-03T03:32:49.770Z,971.855
2018-12-03T03:34:50.457Z,971.828
2018-12-03T03:36:49.752Z,971.828
2018-12-03T03:38:49.896Z,971.801
2018-12-03T03:40:50.038Z,971.773
2018-12-03T03:42:50.139Z,971.770
2018-12-03T03:44:50.429Z,971.811
2018-12-03T03:46:49.936Z,971.821
2018-12-03T03:48:49.999Z,971.854
2018-12-03T03:50:50.110Z,971.854
2018-12-03T03:52:50.170Z,971.923
2018-12-03T03:54:50.216Z,971.934
2018-12-03T03:56:50.488Z,971.958
2018-12-03T03:58:50.578Z,971.963
2018-12-03T04:00:49.760Z,971.950
2018-12-03T04:02:49.927Z,971.939
2018-12-03T04:04:50.232Z,972.030
2018-12-03T04:06:50.486Z,972.066
2018-12-03T04:08:49.662Z,971.980
2018-12-03T04:10:49.795Z,971.962
2018-12-03T04:12:50.043Z,971.967
2018-12-03T04:14:50.158Z,971.974
2018-12-03T04:16:50.523Z,971.974
2018-12-03T04:18:49.737Z,972.018
2018-12-03T04:20:50.102Z,972.052
2018-12-03T04:22:50.212Z,972.013
2018-12-03T04:24:50.279Z,971.967
2018-12-03T04:26:49.632Z,971.939
2018-12-03T04:28:49.787Z,971.906
2018-12-03T04:30:49.946Z,971.868
2018-12-03T04:32:50.085Z,971.827
2018-12-03T04:34:50.548Z,971.820
2018-12-03T04:36:49.911Z,971.816
2018-12-03T04:38:50.087Z,971.822
2018-12-03T04:40:50.178Z,971.845
2018-12-03T04:42:50.262Z,971.876
2018-12-03T04:44:50.295Z,971.869
2018-12-03T04:46:49.715Z,971.895
2018-12-03T04:48:49.920Z,971.921
2018-12-03T04:50:50.070Z,971.906
2018-12-03T04:52:50.213Z,971.902
2018-12-03T04:54:50.331Z,971.889
2018-12-03T04:56:49.849Z,971.869
2018-12-03T04:58:49.919Z,971.832
2018-12-03T05:00:50.085Z,971.807
2018-12-03T05:02:50.064Z,971.766
2018-12-03T05:04:50.405Z,971.737
2018-12-03T05:06:50.022Z,971.738
2018-12-03T05:08:49.611Z,971.782
2018-12-03T05:10:49.725Z,971.804
2018-12-03T05:12:49.944Z,971.827
2018-12-03T05:14:50.021Z,971.837
2018-12-03T05:16:50.262Z,971.844
2018-12-03T05:18:50.330Z,971.897
2018-12-03T05:20:50.453Z,971.941
2018-12-03T05:22:50.598Z,971.950
2018-12-03T05:24:49.831Z,971.924
2018-12-03T05:26:49.933Z,971.902
2018-12-03T05:28:50.181Z,971.902
2018-12-03T05:30:50.286Z,971.912
2018-12-03T05:32:50.472Z,971.899
2018-12-03T05:34:49.768Z,971.854
2018-12-03T05:36:50.288Z,971.888
2018-12-03T05:38:50.583Z,971.948
2018-12-03T05:40:49.630Z,972.004
2018-12-03T05:42:49.638Z,972.015
2018-12-03T05:44:49.868Z,972.042
2018-12-03T05:46:50.171Z,972.055
2018-12-03T05:48:50.284Z,972.054
2018-12-03T05:50:50.398Z,972.055
2018-12-03T05:52:50.529Z,972.073
2018-12-03T05:54:50.507Z,972.111
2018-12-03T05:56:50.105Z,972.111
2018-12-03T05:58:50.142Z,972.144
2018-12-03T06:00:50.247Z,972.156
2018-12-03T06:02:50.354Z,972.150
2018-12-03T06:04:49.889Z,972.159
2018-12-03T06:06:50.176Z,972.179
2018-12-03T06:08:50.240Z,972.211
2018-12-03T06:10:50.452Z,972.239
2018-12-03T06:12:50.579Z,972.267
2018-12-03T06:14:49.610Z,972.256
2018-12-03T06:16:50.026Z,972.260
2018-12-03T06:18:50.138Z,972.242
2018-12-03T06:20:50.261Z,972.231
2018-12-03T06:22:50.346Z,972.237
2018-12-03T06:24:50.500Z,972.239
2018-12-03T06:26:49.871Z,972.257
2018-12-03T06:28:50.102Z,972.257
2018-12-03T06:30:50.192Z,972.271
2018-12-03T06:32:50.267Z,972.249
2018-12-03T06:34:49.789Z,972.249
2018-12-03T06:36:50.529Z,972.258
2018-12-03T06:38:49.646Z,972.298
2018-12-03T06:40:49.805Z,972.400
2018-12-03T06:42:50.015Z,972.454
2018-12-03T06:44:50.148Z,972.456
2018-12-03T06:46:50.353Z,972.474
2018-12-03T06:48:50.409Z,972.514
2018-12-03T06:50:50.579Z,972.514
2018-12-03T06:52:49.715Z,972.480
2018-12-03T06:54:49.783Z,972.456
2018-12-03T06:56:50.289Z,972.396
2018-12-03T06:58:50.326Z,972.333
2018-12-03T07:00:50.368Z,972.368
2018-12-03T07:02:50.535Z,972.413
2018-12-03T07:04:50.184Z,972.455
2018-12-03T07:06:50.479Z,972.588
2018-12-03T07:08:49.628Z,972.639
2018-12-03T07:10:49.722Z,972.664
2018-12-03T07:12:49.833Z,972.653
2018-12-03T07:14:49.954Z,972.629
2018-12-03T07:16:50.178Z,972.606
2018-12-03T07:18:50.234Z,972.650
2018-12-03T07:20:50.313Z,972.642
2018-12-03T07:22:50.455Z,972.638
2018-12-03T07:24:50.577Z,972.702
2018-12-03T07:26:49.939Z,972.752
2018-12-03T07:28:50.050Z,972.810
2018-12-03T07:30:50.292Z,972.842
2018-12-03T07:32:50.541Z,972.891
2018-12-03T07:34:50.094Z,972.922
2018-12-03T07:36:50.445Z,972.994
2018-12-03T07:38:50.437Z,973.006
2018-12-03T07:40:50.590Z,973.045
2018-12-03T07:42:49.659Z,973.064
2018-12-03T07:44:49.795Z,973.144
2018-12-03T07:46:50.308Z,973.156
2018-12-03T07:48:50.340Z,973.161
2018-12-03T07:50:49.649Z,973.181
2018-12-03T07:52:49.913Z,973.182
2018-12-03T07:54:49.873Z,973.165
2018-12-03T07:56:50.038Z,973.154
2018-12-03T07:58:50.175Z,973.143
2018-12-03T08:00:50.310Z,973.115
2018-12-03T08:02:50.391Z,973.082
2018-12-03T08:04:49.899Z,973.049
2018-12-03T08:06:50.254Z,973.007
2018-12-03T08:08:50.326Z,972.999
2018-12-03T08:10:50.406Z,972.975
2018-12-03T08:12:50.463Z,972.975
2018-12-03T08:14:49.601Z,972.951
2018-12-03T08:16:49.819Z,973.009
2018-12-03T08:18:49.942Z,973.070
2018-12-03T08:20:50.093Z,973.100
2018-12-03T08:22:50.393Z,973.148
2018-12-03T08:24:50.599Z,973.153
2018-12-03T08:26:49.897Z,973.176
2018-12-03T08:28:49.975Z,973.176
2018-12-03T08:30:50.059Z,973.158
2018-12-03T08:32:50.139Z,973.189
2018-12-03T08:34:50.628Z,973.229
2018-12-03T08:36:50.080Z,973.229
2018-12-03T08:38:50.141Z,973.286
2018-12-03T08:40:50.196Z,973.303
2018-12-03T08:42:50.298Z,973.337
2018-12-03T08:44:50.348Z,973.333
2018-12-03T08:46:49.597Z,973.351
2018-12-03T08:48:49.874Z,973.365
2018-12-03T08:50:49.792Z,973.358
2018-12-03T08:52:50.095Z,973.374
2018-12-03T08:54:50.172Z,973.374
2018-12-03T08:56:50.513Z,973.378
2018-12-03T08:58:49.642Z,973.388
2018-12-03T09:00:49.686Z,973.372
2018-12-03T09:02:49.835Z,973.404
2018-12-03T09:04:50.182Z,973.442
2018-12-03T09:06:49.716Z,973.455
2018-12-03T09:08:49.784Z,973.421
2018-12-03T09:10:50.007Z,973.403
2018-12-03T09:12:50.077Z,973.380
2018-12-03T09:14:50.091Z,973.364
2018-12-03T09:16:50.441Z,973.379
2018-12-03T09:18:50.592Z,973.398
2018-12-03T09:20:49.917Z,973.391
2018-12-03T09:22:50.120Z,973.415
2018-12-03T09:24:50.183Z,973.434
2018-12-03T09:26:49.623Z,973.479
2018-12-03T09:28:49.726Z,973.529
2018-12-03T09:30:49.899Z,973.543
2018-12-03T09:32:49.949Z,973.522
2018-12-03T09:34:50.359Z,973.503
2018-12-03T09:36:49.758Z,973.472
2018-12-03T09:38:50.080Z,973.479
2018-12-03T09:40:50.199Z,973.488
2018-12-03T09:42:50.333Z,973.492
2018-12-03T09:44:50.467Z,973.495
2018-12-03T09:46:49.892Z,973.439
2018-12-03T09:48:50.053Z,973.404
2018-12-03T09:50:50.128Z,973.363
2018-12-03T09:52:50.284Z,973.363
2018-12-03T09:54:50.382Z,973.396
2018-12-03T09:56:49.730Z,973.411
2018-12-03T09:58:50.098Z,973.381
2018-12-03T10:00:50.312Z,973.343
2018-12-03T10:02:50.520Z,973.289
2018-12-03T10:04:50.156Z,973.296
2018-12-03T10:06:50.478Z,973.260
2018-12-03T10:08:50.593Z,973.211
2018-12-03T10:10:50.578Z,973.211
2018-12-03T10:12:49.589Z,973.114
2018-12-03T10:14:49.810Z,973.085
2018-12-03T10:16:50.076Z,973.077
2018-12-03T10:18:50.029Z,973.033
2018-12-03T10:20:50.140Z,973.028
2018-12-03T10:22:50.204Z,973.005
2018-12-03T10:24:50.330Z,972.994
2018-12-03T10:26:50.431Z,973.011
2018-12-03T10:28:50.406Z,973.011
2018-12-03T10:30:50.534Z,973.044
2018-12-03T10:32:49.909Z,973.017
2018-12-03T10:34:50.427Z,972.943
2018-12-03T10:36:49.778Z,972.877
2018-12-03T10:38:50.292Z,972.840
2018-12-03T10:40:50.360Z,972.814
2018-12-03T10:42:50.358Z,972.817
2018-12-03T10:44:50.449Z,972.791
2018-12-03T10:46:49.838Z,972.791
2018-12-03T10:48:49.823Z,972.775
2018-12-03T10:50:49.932Z,972.760
2018-12-03T10:52:50.187Z,972.714
2018-12-03T10:54:50.386Z,972.685
2018-12-03T10:56:49.647Z,972.631
2018-12-03T10:58:49.633Z,972.613
2018-12-03T11:00:49.840Z,972.571
2018-12-03T11:02:49.901Z,972.551
2018-12-03T11:04:49.766Z,972.545
2018-12-03T11:06:50.066Z,972.545
2018-12-03T11:08:50.139Z,972.545
2018-12-03T11:10:50.213Z,972.487
2018-12-03T11:12:50.440Z,972.486
2018-12-03T11:14:50.543Z,972.496
2018-12-03T11:16:49.909Z,972.512
2018-12-03T11:18:49.996Z,972.521
2018-12-03T11:20:50.107Z,972.520
2018-12-03T11:22:50.225Z,972.512
2018-12-03T11:24:50.254Z,972.524
2018-12-03T11:26:49.615Z,972.521
2018-12-03T11:28:49.750Z,972.481
2018-12-03T11:30:49.979Z,972.455
2018-12-03T11:32:50.004Z,972.421
2018-12-03T11:34:50.425Z,972.419
2018-12-03T11:36:49.621Z,972.369
2018-12-03T11:38:49.778Z,972.317
2018-12-03T11:40:50.063Z,972.283
2018-12-03T11:42:50.321Z,972.229
2018-12-03T11:44:50.403Z,972.207
2018-12-03T11:46:49.715Z,972.207
2018-12-03T11:48:49.964Z,972.179
2018-12-03T11:50:49.963Z,972.174
2018-12-03T11:52:50.058Z,972.206
2018-12-03T11:54:50.065Z,972.239
2018-12-03T11:56:50.367Z,972.230
2018-12-03T11:58:50.503Z,972.231
2018-12-03T12:00:50.594Z,972.225
2018-12-03T12:02:50.603Z,972.218
2018-12-03T12:04:50.194Z,972.239
2018-12-03T12:06:50.451Z,972.195
2018-12-03T12:08:50.544Z,972.121
2018-12-03T12:10:49.685Z,972.033
2018-12-03T12:12:49.836Z,972.026
2018-12-03T12:14:49.976Z,971.978
2018-12-03T12:16:50.341Z,971.909
2018-12-03T12:18:50.343Z,971.838
2018-12-03T12:20:50.547Z,971.777
2018-12-03T12:22:49.696Z,971.761
2018-12-03T12:24:49.843Z,971.789
2018-12-03T12:26:50.195Z,971.809
2018-12-03T12:28:50.344Z,971.823
2018-12-03T12:30:50.463Z,971.800
2018-12-03T12:32:50.597Z,971.757
2018-12-03T12:34:50.039Z,971.731
2018-12-03T12:36:50.276Z,971.732
2018-12-03T12:38:50.380Z,971.740
2018-12-03T12:40:50.457Z,971.738
2018-12-03T12:42:50.465Z,971.701
2018-12-03T12:44:50.598Z,971.696
2018-12-03T12:46:49.812Z,971.671
2018-12-03T12:48:50.096Z,971.623
2018-12-03T12:50:50.237Z,971.604
2018-12-03T12:52:50.448Z,971.622
2018-12-03T12:54:49.827Z,971.626
2018-12-03T12:56:50.249Z,971.561
2018-12-03T12:58:50.225Z,971.557
2018-12-03T13:00:50.173Z,971.540
2018-12-03T13:02:50.186Z,971.520
2018-12-03T13:04:50.570Z,971.500
2018-12-03T13:06:50.173Z,971.492
2018-12-03T13:08:49.720Z,971.506
2018-12-03T13:10:49.824Z,971.559
2018-12-03T13:12:49.785Z,971.585
2018-12-03T13:14:49.909Z,971.634
2018-12-03T13:16:49.988Z,971.685
2018-12-03T13:18:50.027Z,971.741
2018-12-03T13:20:49.968Z,971.741
2018-12-03T13:22:49.973Z,971.777
2018-12-03T13:24:49.962Z,971.774
2018-12-03T13:26:50.104Z,971.782
2018-12-03T13:28:50.141Z,971.791
2018-12-03T13:30:50.129Z,971.867
2018-12-03T13:32:50.051Z,971.881
2018-12-03T13:34:50.239Z,971.916
2018-12-03T13:36:50.269Z,971.928
2018-12-03T13:38:50.281Z,971.944
2018-12-03T13:40:50.288Z,971.977
2018-12-03T13:42:50.290Z,971.999
2018-12-03T13:44:50.212Z,972.038
2018-12-03T13:46:50.339Z,972.125
2018-12-03T13:48:50.341Z,972.158
2018-12-03T13:50:50.375Z,972.200
2018-12-03T13:52:50.400Z,972.199
2018-12-03T13:54:50.303Z,972.198
2018-12-03T13:56:50.420Z,972.225
2018-12-03T13:58:50.445Z,972.286
2018-12-03T14:00:50.380Z,972.295
2018-12-03T14:02:50.345Z,972.223
2018-12-03T14:04:49.830Z,972.168
2018-12-03T14:06:49.955Z,972.149
2018-12-03T14:08:49.938Z,972.102
2018-12-03T14:10:49.889Z,972.033
2018-12-03T14:12:49.868Z,972.033
2018-12-03T14:14:49.791Z,972.046
2018-12-03T14:16:50.419Z,972.102
2018-12-03T14:18:50.506Z,972.099
2018-12-03T14:20:50.416Z,972.107
2018-12-03T14:22:50.424Z,972.106
2018-12-03T14:24:50.333Z,972.073
2018-12-03T14:26:50.378Z,971.989
2018-12-03T14:28:50.293Z,972.001
2018-12-03T14:30:50.308Z,971.991
2018-12-03T14:32:50.271Z,971.970
2018-12-03T14:34:50.465Z,971.971
2018-12-03T14:36:50.606Z,971.980
2018-12-03T14:38:50.583Z,971.980
2018-12-03T14:40:50.507Z,971.972
2018-12-03T14:42:49.633Z,971.958
2018-12-03T14:44:50.593Z,971.971
2018-12-03T14:46:49.960Z,971.986
2018-12-03T14:48:49.919Z,972.023
2018-12-03T14:50:49.863Z,972.001
2018-12-03T14:52:49.791Z,971.987
2018-12-03T14:54:49.769Z,971.993
2018-12-03T14:56:49.972Z,971.985
2018-12-03T14:58:49.924Z,971.970
2018-12-03T15:00:49.905Z,971.982
2018-12-03T15:02:49.920Z,972.154
2018-12-03T15:04:50.146Z,972.242
2018-12-03T15:06:50.263Z,972.313
2018-12-03T15:08:50.257Z,972.387
2018-12-03T15:10:50.211Z,972.496
2018-12-03T15:12:50.587Z,972.570
2018-12-03T15:14:50.454Z,972.603
2018-12-03T15:16:49.680Z,972.657
2018-12-03T15:18:49.667Z,972.756
2018-12-03T15:20:49.626Z,972.827
2018-12-03T15:22:49.696Z,972.880
2018-12-03T15:24:49.637Z,972.880
2018-12-03T15:26:49.917Z,972.907
2018-12-03T15:28:49.964Z,972.875
2018-12-03T15:30:49.928Z,972.848
2018-12-03T15:32:49.858Z,972.784
2018-12-03T15:34:50.083Z,972.736
2018-12-03T15:36:50.210Z,972.651
2018-12-03T15:38:50.162Z,972.592
2018-12-03T15:40:50.167Z,972.575
2018-12-03T15:42:50.161Z,972.466
2018-12-03T15:44:50.141Z,972.466
2018-12-03T15:46:50.300Z,972.357
2018-12-03T15:48:50.271Z,972.295
2018-12-03T15:50:50.254Z,972.261
2018-12-03T15:52:50.210Z,972.325
2018-12-03T15:54:50.313Z,972.377
2018-12-03T15:56:50.453Z,972.397
2018-12-03T15:58:50.416Z,972.384
2018-12-03T16:00:50.427Z,972.322
2018-12-03T16:02:50.345Z,972.314
2018-12-03T16:04:49.611Z,972.257
2018-12-03T16:06:49.754Z,972.249
2018-12-03T16:08:49.793Z,972.245
2018-12-03T16:10:49.810Z,972.233
2018-12-03T16:12:49.859Z,972.211
2018-12-03T16:14:49.831Z,972.097
2018-12-03T16:16:49.942Z,972.031
2018-12-03T16:18:49.855Z,972.024
2018-12-03T16:20:49.786Z,971.901
2018-12-03T16:22:49.894Z,971.901
2018-12-03T16:24:49.846Z,971.778
2018-12-03T16:26:49.994Z,971.803
2018-12-03T16:28:49.989Z,971.817
2018-12-03T16:30:49.964Z,971.825
2018-12-03T16:32:49.971Z,971.809
2018-12-03T16:34:50.255Z,971.787
2018-12-03T16:36:50.411Z,971.775
2018-12-03T16:38:50.340Z,971.790
2018-12-03T16:40:50.345Z,971.837
2018-12-03T16:42:50.340Z,971.883
2018-12-03T16:44:50.284Z,971.899
2018-12-03T16:46:50.470Z,971.915
2018-12-03T16:48:49.635Z,971.926
2018-12-03T16:50:49.607Z,971.918
2018-12-03T16:52:49.612Z,971.894
2018-12-03T16:54:50.589Z,971.884
2018-12-03T16:56:49.777Z,971.820
2018-12-03T16:58:49.856Z,971.803
2018-12-03T17:00:49.852Z,971.753
2018-12-03T17:02:49.859Z,971.771
2018-12-03T17:04:50.091Z,971.874
2018-12-03T17:06:50.279Z,971.892
2018-12-03T17:08:50.217Z,971.866
2018-12-03T17:10:50.248Z,971.771
2018-12-03T17:12:50.285Z,971.716
2018-12-03T17:14:50.297Z,971.694
2018-12-03T17:16:50.496Z,971.720
2018-12-03T17:18:50.539Z,971.723
2018-12-03T17:20:50.612Z,971.673
2018-12-03T17:22:50.589Z,971.652
2018-12-03T17:24:49.606Z,971.569
2018-12-03T17:26:49.759Z,971.560
2018-12-03T17:28:49.777Z,971.611
2018-12-03T17:30:49.857Z,971.625
2018-12-03T17:32:49.885Z,971.620
2018-12-03T17:34:50.169Z,971.630
2018-12-03T17:36:50.273Z,971.752
2018-12-03T17:38:50.168Z,971.750
2018-12-03T17:40:50.132Z,971.679
2018-12-03T17:42:50.054Z,971.638
2018-12-03T17:44:50.011Z,971.608
2018-12-03T17:46:50.322Z,971.600
2018-12-03T17:48:50.268Z,971.552
2018-12-03T17:50:50.240Z,971.528
2018-12-03T17:52:50.187Z,971.536
2018-12-03T17:54:50.142Z,971.468
2018-12-03T17:56:50.328Z,971.456
2018-12-03T17:58:50.358Z,971.381
2018-12-03T18:00:50.305Z,971.260
2018-12-03T18:02:50.400Z,971.196
2018-12-03T18:04:49.632Z,971.159
2018-12-03T18:06:49.919Z,971.153
2018-12-03T18:08:49.829Z,971.109
2018-12-03T18:10:49.794Z,971.113
2018-12-03T18:12:49.818Z,971.077
2018-12-03T18:14:49.816Z,971.077
2018-12-03T18:16:50.144Z,971.074
2018-12-03T18:18:50.067Z,971.085
2018-12-03T18:20:50.018Z,971.076
2018-12-03T18:22:49.995Z,971.032
2018-12-03T18:24:49.962Z,971.015
2018-12-03T18:26:50.182Z,970.903
2018-12-03T18:28:50.137Z,970.887
2018-12-03T18:30:50.052Z,970.903
2018-12-03T18:32:50.030Z,970.991
2018-12-03T18:34:50.305Z,971.167
2018-12-03T18:36:50.466Z,971.321
2018-12-03T18:38:50.435Z,971.328
2018-12-03T18:40:50.420Z,971.255
2018-12-03T18:42:50.330Z,971.255
2018-12-03T18:44:50.285Z,971.152
2018-12-03T18:46:50.539Z,971.180
2018-12-03T18:48:50.432Z,971.340
2018-12-03T18:50:50.496Z,971.402
2018-12-03T18:52:50.447Z,971.406
2018-12-03T18:54:50.410Z,971.319
2018-12-03T18:56:50.579Z,970.952
2018-12-03T18:58:50.521Z,970.799
2018-12-03T19:00:50.606Z,970.775
2018-12-03T19:02:50.547Z,970.851
2018-12-03T19:04:49.935Z,970.905
2018-12-03T19:06:50.049Z,970.883
2018-12-03T19:08:50.057Z,970.804
2018-12-03T19:10:50.047Z,970.785
2018-12-03T19:12:50.129Z,970.785
2018-12-03T19:14:50.096Z,970.810
2018-12-03T19:16:50.273Z,970.800
2018-12-03T19:18:50.281Z,970.774
2018-12-03T19:20:50.254Z,970.737
2018-12-03T19:22:50.254Z,970.655
2018-12-03T19:24:50.272Z,970.567
2018-12-03T19:26:50.483Z,970.471
2018-12-03T19:28:50.446Z,970.402
2018-12-03T19:30:50.513Z,970.400
2018-12-03T19:32:50.470Z,970.410
2018-12-03T19:34:49.815Z,970.391
2018-12-03T19:36:49.956Z,970.301
2018-12-03T19:38:49.907Z,970.269
2018-12-03T19:40:49.880Z,970.256
2018-12-03T19:42:49.896Z,970.234
2018-12-03T19:44:49.901Z,970.165
2018-12-03T19:46:50.068Z,970.210
2018-12-03T19:48:50.091Z,970.222
2018-12-03T19:50:50.047Z,970.261
2018-12-03T19:52:50.084Z,970.317
2018-12-03T19:54:50.203Z,970.431
2018-12-03T19:56:50.410Z,970.483
2018-12-03T19:58:50.358Z,970.582
2018-12-03T20:00:50.344Z,970.602
2018-12-03T20:02:50.279Z,970.642
2018-12-03T20:04:49.667Z,970.646
2018-12-03T20:06:50.121Z,970.609
2018-12-03T20:08:50.145Z,970.609
2018-12-03T20:10:50.212Z,970.603
2018-12-03T20:12:50.203Z,970.610
2018-12-03T20:14:50.169Z,970.622
2018-12-03T20:16:50.319Z,970.632
2018-12-03T20:18:50.329Z,970.619
2018-12-03T20:20:50.279Z,970.641
2018-12-03T20:22:50.346Z,970.659
2018-12-03T20:24:50.318Z,970.741
2018-12-03T20:26:50.408Z,970.882
2018-12-03T20:28:50.386Z,970.993
2018-12-03T20:30:50.410Z,971.029
2018-12-03T20:32:50.414Z,971.125
2018-12-03T20:34:49.764Z,971.153
2018-12-03T20:36:50.096Z,971.220
2018-12-03T20:38:50.096Z,971.220
2018-12-03T20:40:50.096Z,971.219
2018-12-03T20:42:50.519Z,971.245
2018-12-03T20:44:50.582Z,971.261
2018-12-03T20:46:49.901Z,971.300
2018-12-03T20:48:49.919Z,971.310
2018-12-03T20:50:49.914Z,971.318
2018-12-03T20:52:49.977Z,971.337
2018-12-03T20:54:49.991Z,971.346
2018-12-03T20:56:50.331Z,971.365
2018-12-03T20:58:50.399Z,971.384
2018-12-03T21:00:50.347Z,971.384
2018-12-03T21:02:50.334Z,971.436
2018-12-03T21:04:49.819Z,971.459
2018-12-03T21:06:50.025Z,971.518
2018-12-03T21:08:49.949Z,971.544
2018-12-03T21:10:49.969Z,971.605
2018-12-03T21:12:49.961Z,971.617
2018-12-03T21:14:49.924Z,971.614
2018-12-03T21:16:50.051Z,971.622
2018-12-03T21:18:50.020Z,971.627
2018-12-03T21:20:50.015Z,971.633
2018-12-03T21:22:50.026Z,971.620
2018-12-03T21:24:50.022Z,971.586
2018-12-03T21:26:50.242Z,971.444
2018-12-03T21:28:50.227Z,971.390
2018-12-03T21:30:50.300Z,971.379
2018-12-03T21:32:50.377Z,971.443
2018-12-03T21:34:49.639Z,971.485
2018-12-03T21:36:49.845Z,971.534
2018-12-03T21:38:49.831Z,971.588
2018-12-03T21:40:49.856Z,971.753
2018-12-03T21:42:49.775Z,971.879
2018-12-03T21:44:49.777Z,971.965
2018-12-03T21:46:50.028Z,971.967
2018-12-03T21:48:49.994Z,972.075
2018-12-03T21:50:49.918Z,972.132
2018-12-03T21:52:49.916Z,972.141
2018-12-03T21:54:49.867Z,972.160
2018-12-03T21:56:50.072Z,972.242
2018-12-03T21:58:50.045Z,972.334
2018-12-03T22:00:50.076Z,972.523
2018-12-03T22:02:50.059Z,972.607
2018-12-03T22:04:50.391Z,972.710
2018-12-03T22:06:50.522Z,972.745
2018-12-03T22:08:50.490Z,972.876
2018-12-03T22:10:50.460Z,973.016
2018-12-03T22:12:50.600Z,973.067
2018-12-03T22:14:50.582Z,973.157
2018-12-03T22:16:49.789Z,973.187
2018-12-03T22:18:49.823Z,973.313
2018-12-03T22:20:49.804Z,973.423
2018-12-03T22:22:49.828Z,973.416
2018-12-03T22:24:49.814Z,973.425
2018-12-03T22:26:50.206Z,973.425
2018-12-03T22:28:50.197Z,973.397
2018-12-03T22:30:50.136Z,973.423
2018-12-03T22:32:50.115Z,973.426
2018-12-03T22:34:50.297Z,973.395
2018-12-03T22:36:50.516Z,973.380
2018-12-03T22:38:49.648Z,973.353
2018-12-03T22:40:49.598Z,973.404
2018-12-03T22:42:49.631Z,973.439
2018-12-03T22:44:49.752Z,973.545
2018-12-03T22:46:49.932Z,973.626
2018-12-03T22:48:49.926Z,973.644
2018-12-03T22:50:49.909Z,973.693
2018-12-03T22:52:49.906Z,973.717
2018-12-03T22:54:49.868Z,973.779
2018-12-03T22:56:49.914Z,973.801
2018-12-03T22:58:49.867Z,973.765
2018-12-03T23:00:49.844Z,973.754
2018-12-03T23:02:49.820Z,973.791
2018-12-03T23:04:50.256Z,973.820
2018-12-03T23:06:50.408Z,973.834
2018-12-03T23:08:50.309Z,973.880
2018-12-03T23:10:50.421Z,973.900
2018-12-03T23:12:50.429Z,973.942
2018-12-03T23:14:50.435Z,973.957
2018-12-03T23:16:49.598Z,973.991
2018-12-03T23:18:50.579Z,974.051
2018-12-03T23:20:49.651Z,974.071
2018-12-03T23:22:49.835Z,974.115
2018-12-03T23:24:49.837Z,974.129
2018-12-03T23:26:49.962Z,974.140
2018-12-03T23:28:49.985Z,974.146
2018-12-03T23:30:50.043Z,974.185
2018-12-03T23:32:50.025Z,974.191
2018-12-03T23:34:50.282Z,974.177
2018-12-03T23:36:50.483Z,974.170
2018-12-03T23:38:50.448Z,974.162
2018-12-03T23:40:50.521Z,974.180
2018-12-03T23:42:49.603Z,974.200
2018-12-03T23:44:49.616Z,974.225
2018-12-03T23:46:49.890Z,974.226
2018-12-03T23:48:49.847Z,974.169
2018-12-03T23:50:49.880Z,974.169
2018-12-03T23:52:49.926Z,974.162
2018-12-03T23:54:49.922Z,974.196
2018-12-03T23:56:50.154Z,974.225
2018-12-03T23:58:50.128Z,974.247
